Time;durP1;ratioP1;P1;durP2;ratioP2;P2;SDS_P1;SDS_P2;PMS_P1;PMS_P2;Temp;Humidity;BMP_temperature;BMP_pressure;BME280_temperature;BME280_humidity;BME280_pressure;Samples;Min_cycle;Max_cycle;Signal;HPM_P1;HPM_P2
2023/02/05 00:00:24;;;;;;;16.80;7.88;;;2.20;99.90;;;;;;5086487;28;20058;-68
2023/02/05 00:02:50;;;;;;;21.52;8.00;;;2.20;99.90;;;;;;5095383;28;20024;-67
2023/02/05 00:05:16;;;;;;;18.13;7.28;;;2.20;99.90;;;;;;5091341;28;20085;-68
2023/02/05 00:07:41;;;;;;;20.90;8.20;;;2.20;99.90;;;;;;5097352;28;20036;-67
2023/02/05 00:10:07;;;;;;;26.55;8.93;;;2.20;99.90;;;;;;5088253;28;20050;-68
2023/02/05 00:12:32;;;;;;;23.33;8.38;;;2.20;99.90;;;;;;5091539;28;20031;-68
2023/02/05 00:14:58;;;;;;;21.73;8.80;;;2.20;99.90;;;;;;5086516;28;20036;-68
2023/02/05 00:17:24;;;;;;;20.35;9.48;;;2.30;99.90;;;;;;5088103;28;20025;-68
2023/02/05 00:19:49;;;;;;;29.05;10.77;;;2.20;99.90;;;;;;5086440;28;20109;-68
2023/02/05 00:22:15;;;;;;;20.13;10.07;;;2.30;99.90;;;;;;5088573;28;20059;-67
2023/02/05 00:24:40;;;;;;;22.70;9.57;;;2.30;99.90;;;;;;5089082;28;20027;-67
2023/02/05 00:27:06;;;;;;;31.45;13.13;;;2.30;99.90;;;;;;5075459;28;20045;-68
2023/02/05 00:29:32;;;;;;;25.33;10.93;;;2.20;99.90;;;;;;5073932;28;20078;-67
2023/02/05 00:31:58;;;;;;;26.20;9.70;;;2.30;99.90;;;;;;5073508;28;20036;-68
2023/02/05 00:34:24;;;;;;;24.27;9.50;;;2.40;99.90;;;;;;5073847;28;20033;-67
2023/02/05 00:36:49;;;;;;;21.40;9.60;;;2.50;99.90;;;;;;5077037;28;20033;-68
2023/02/05 00:39:15;;;;;;;18.52;8.65;;;2.50;99.90;;;;;;5069594;28;20024;-68
2023/02/05 00:41:40;;;;;;;22.08;8.43;;;2.50;99.90;;;;;;5075191;28;20112;-68
2023/02/05 00:44:06;;;;;;;25.88;9.55;;;2.50;99.90;;;;;;5075570;28;20036;-68
2023/02/05 00:46:32;;;;;;;25.00;8.80;;;2.40;99.90;;;;;;5066326;28;20056;-67
2023/02/05 00:48:57;;;;;;;25.17;8.52;;;2.40;99.90;;;;;;5075070;28;20054;-68
2023/02/05 00:51:23;;;;;;;26.10;9.40;;;2.50;99.90;;;;;;5073974;28;20056;-68
2023/02/05 00:53:49;;;;;;;18.23;8.75;;;2.50;99.90;;;;;;5073385;28;20102;-68
2023/02/05 00:56:14;;;;;;;22.35;8.15;;;2.50;99.90;;;;;;5073176;28;20029;-68
2023/02/05 00:58:40;;;;;;;20.25;8.60;;;2.40;99.90;;;;;;5075652;28;20036;-68
2023/02/05 01:01:05;;;;;;;20.67;7.97;;;2.40;99.90;;;;;;5074032;28;20470;-68
2023/02/05 01:03:31;;;;;;;21.27;8.75;;;2.40;99.90;;;;;;5056159;28;20135;-67
2023/02/05 01:05:58;;;;;;;23.23;8.88;;;2.30;99.90;;;;;;5072921;28;20040;-67
2023/02/05 01:08:23;;;;;;;16.50;7.25;;;2.30;99.90;;;;;;5072006;28;20044;-68
2023/02/05 01:10:51;;;;;;;22.80;8.45;;;2.30;99.90;;;;;;5075044;28;20024;-68
2023/02/05 01:13:17;;;;;;;16.70;7.05;;;2.20;99.90;;;;;;5073273;28;20103;-67
2023/02/05 01:15:43;;;;;;;16.20;7.10;;;2.20;99.90;;;;;;5073743;28;20388;-67
2023/02/05 01:18:10;;;;;;;16.80;7.18;;;2.20;99.90;;;;;;5067273;28;20054;-68
2023/02/05 01:20:37;;;;;;;19.73;7.32;;;2.20;99.90;;;;;;5074742;28;20048;-67
2023/02/05 01:23:03;;;;;;;21.50;9.63;;;2.30;99.90;;;;;;5071858;28;20027;-67
2023/02/05 01:25:29;;;;;;;20.23;8.02;;;2.30;99.90;;;;;;5071579;28;20043;-67
2023/02/05 01:27:54;;;;;;;19.15;7.50;;;2.30;99.90;;;;;;5073728;28;20048;-68
2023/02/05 01:30:20;;;;;;;18.63;7.22;;;2.30;99.90;;;;;;5072146;28;20096;-68
2023/02/05 01:32:45;;;;;;;16.95;7.78;;;2.30;99.90;;;;;;5071836;28;20150;-68
2023/02/05 01:35:11;;;;;;;15.50;7.28;;;2.30;99.90;;;;;;5071100;28;20477;-68
2023/02/05 01:37:37;;;;;;;13.80;7.57;;;2.30;99.90;;;;;;5072416;28;20028;-68
2023/02/05 01:40:03;;;;;;;22.10;7.53;;;2.30;99.90;;;;;;5071344;28;20032;-68
2023/02/05 01:42:30;;;;;;;20.20;6.43;;;2.30;99.90;;;;;;5070794;28;20029;-68
2023/02/05 01:45:21;;;;;;;20.75;6.97;;;2.30;99.90;;;;;;5074406;28;20064;-68
2023/02/05 01:47:50;;;;;;;14.25;6.35;;;2.30;99.90;;;;;;5071627;28;20025;-68
2023/02/05 01:50:19;;;;;;;22.65;6.88;;;2.30;99.90;;;;;;5069749;28;20488;-68
2023/02/05 01:52:45;;;;;;;17.67;6.87;;;2.30;99.90;;;;;;5072239;28;20041;-68
2023/02/05 01:55:11;;;;;;;21.13;7.03;;;2.30;99.90;;;;;;5072274;28;20036;-68
2023/02/05 01:57:37;;;;;;;14.07;6.88;;;2.30;99.90;;;;;;5071643;28;20480;-68
2023/02/05 02:00:05;;;;;;;15.77;7.28;;;2.30;99.90;;;;;;5075227;28;20028;-68
2023/02/05 02:02:33;;;;;;;18.42;7.00;;;2.30;99.90;;;;;;5071082;28;20028;-67
2023/02/05 02:05:05;;;;;;;16.30;6.63;;;2.30;99.90;;;;;;5061722;28;20055;-68
2023/02/05 02:07:31;;;;;;;20.40;8.60;;;2.20;99.90;;;;;;5067722;28;20110;-67
2023/02/05 02:09:57;;;;;;;20.52;8.43;;;2.20;99.90;;;;;;5055153;28;20460;-67
2023/02/05 02:12:28;;;;;;;18.00;8.68;;;2.20;99.90;;;;;;5070732;28;20020;-67
2023/02/05 02:14:59;;;;;;;16.23;7.80;;;2.20;99.90;;;;;;5069794;28;20446;-68
2023/02/05 02:17:26;;;;;;;19.13;8.23;;;2.20;99.90;;;;;;5071255;28;21376;-68
2023/02/05 02:20:02;;;;;;;24.33;10.18;;;2.10;99.90;;;;;;5070051;28;21262;-67
2023/02/05 02:22:42;;;;;;;26.95;11.43;;;2.10;99.90;;;;;;5064102;28;20051;-69
2023/02/05 02:25:25;;;;;;;26.85;11.05;;;2.10;99.90;;;;;;5070061;28;20039;-68
2023/02/05 02:28:09;;;;;;;16.10;7.55;;;2.00;99.90;;;;;;5068352;28;20141;-68
2023/02/05 02:31:12;;;;;;;19.40;7.15;;;2.00;99.90;;;;;;5071335;28;20043;-68
2023/02/05 02:33:50;;;;;;;15.52;6.95;;;2.00;99.90;;;;;;5060800;28;20543;-68
2023/02/05 02:36:45;;;;;;;14.40;6.32;;;2.00;99.90;;;;;;5066352;28;20021;-67
2023/02/05 02:39:11;;;;;;;16.23;7.20;;;2.00;99.90;;;;;;5069028;28;20334;-68
2023/02/05 02:42:09;;;;;;;21.83;8.15;;;2.00;99.90;;;;;;5072428;28;20692;-67
2023/02/05 02:44:56;;;;;;;18.50;7.03;;;2.00;99.90;;;;;;5069497;28;20024;-67
2023/02/05 02:47:27;;;;;;;17.40;7.55;;;2.00;99.90;;;;;;5063425;28;20035;-67
2023/02/05 02:50:01;;;;;;;21.40;8.02;;;2.00;99.90;;;;;;5070078;28;20153;-68
2023/02/05 02:52:32;;;;;;;17.38;7.57;;;2.00;99.90;;;;;;5072530;28;20450;-68
2023/02/05 02:55:04;;;;;;;17.33;8.45;;;2.00;99.90;;;;;;5072515;28;20047;-67
2023/02/05 02:57:30;;;;;;;20.05;8.32;;;2.00;99.90;;;;;;5071685;28;20027;-68
2023/02/05 03:00:00;;;;;;;16.05;7.55;;;2.00;99.90;;;;;;5070225;28;20478;-67
2023/02/05 03:02:30;;;;;;;17.20;7.63;;;2.10;99.90;;;;;;5061929;28;20040;-68
2023/02/05 03:05:00;;;;;;;24.63;8.80;;;2.10;99.90;;;;;;5074417;28;20036;-68
2023/02/05 03:07:31;;;;;;;18.70;8.50;;;2.10;99.90;;;;;;5070310;28;20020;-67
2023/02/05 03:10:25;;;;;;;19.75;8.52;;;2.10;99.90;;;;;;5069680;28;20033;-68
2023/02/05 03:12:51;;;;;;;19.67;8.23;;;2.10;99.90;;;;;;5069701;28;20025;-68
2023/02/05 03:15:17;;;;;;;18.88;9.30;;;2.20;99.90;;;;;;5069543;28;20029;-67
2023/02/05 03:17:43;;;;;;;16.88;8.57;;;2.30;99.90;;;;;;5065698;28;20036;-68
2023/02/05 03:20:11;;;;;;;18.65;9.13;;;2.30;99.90;;;;;;5060962;28;20493;-68
2023/02/05 03:22:37;;;;;;;15.50;8.88;;;2.20;99.90;;;;;;5069144;28;20024;-69
2023/02/05 03:25:06;;;;;;;15.98;8.70;;;2.20;99.90;;;;;;5069172;28;20392;-68
2023/02/05 03:27:32;;;;;;;21.48;9.35;;;2.10;99.90;;;;;;5067853;28;20174;-68
2023/02/05 03:29:58;;;;;;;19.92;9.35;;;2.10;99.90;;;;;;5070009;28;20024;-68
2023/02/05 03:32:52;;;;;;;17.83;9.13;;;2.10;99.90;;;;;;5069160;28;20928;-68
2023/02/05 03:35:36;;;;;;;23.02;10.13;;;2.10;99.90;;;;;;5069496;28;20180;-68
2023/02/05 03:38:20;;;;;;;21.67;9.95;;;2.10;99.90;;;;;;5070964;28;20542;-68
2023/02/05 03:40:58;;;;;;;20.08;9.82;;;2.10;99.90;;;;;;5071720;28;20028;-68
2023/02/05 03:43:30;;;;;;;17.63;9.10;;;2.00;99.90;;;;;;5070041;28;20021;-68
2023/02/05 03:46:10;;;;;;;18.30;9.10;;;2.00;99.90;;;;;;5070874;28;20039;-68
2023/02/05 03:48:39;;;;;;;21.65;9.15;;;1.90;99.90;;;;;;5067090;28;20030;-68
2023/02/05 03:51:31;;;;;;;19.58;9.85;;;1.90;99.90;;;;;;5067758;28;20043;-67
2023/02/05 03:54:21;;;;;;;21.02;8.60;;;1.80;99.90;;;;;;5070707;28;20465;-68
2023/02/05 03:57:13;;;;;;;23.92;9.88;;;1.70;99.90;;;;;;5069558;28;20036;-68
2023/02/05 03:59:39;;;;;;;24.45;9.23;;;1.60;99.90;;;;;;5070546;28;20036;-68
2023/02/05 04:02:05;;;;;;;23.35;10.65;;;1.50;99.90;;;;;;5072128;28;20028;-68
2023/02/05 04:04:31;;;;;;;16.85;9.45;;;1.50;99.90;;;;;;5068648;28;20033;-67
2023/02/05 04:06:57;;;;;;;15.25;8.98;;;1.40;99.90;;;;;;5069357;28;20037;-68
2023/02/05 04:09:22;;;;;;;18.25;9.05;;;1.30;99.90;;;;;;5067978;28;20039;-68
2023/02/05 04:11:48;;;;;;;19.48;8.93;;;1.30;99.90;;;;;;5072213;28;20428;-68
2023/02/05 04:14:13;;;;;;;15.55;8.40;;;1.20;99.90;;;;;;5066304;28;20389;-68
2023/02/05 04:16:39;;;;;;;28.50;10.32;;;1.10;99.90;;;;;;5073196;28;20024;-68
2023/02/05 04:19:05;;;;;;;19.35;10.43;;;1.10;99.90;;;;;;5077053;28;20081;-68
2023/02/05 04:21:30;;;;;;;23.15;9.57;;;1.00;99.90;;;;;;5064760;28;20445;-68
2023/02/05 04:23:56;;;;;;;19.02;8.70;;;1.00;99.90;;;;;;5065362;28;20036;-70
2023/02/05 04:26:22;;;;;;;21.23;8.27;;;1.00;99.90;;;;;;5083696;28;20064;-68
2023/02/05 04:28:47;;;;;;;23.27;8.98;;;1.00;99.90;;;;;;5090604;28;20473;-67
2023/02/05 04:31:13;;;;;;;15.88;8.48;;;0.90;99.90;;;;;;5083454;28;20032;-68
2023/02/05 04:33:39;;;;;;;18.73;8.55;;;0.80;99.90;;;;;;5088181;28;20028;-68
2023/02/05 04:36:05;;;;;;;18.25;7.63;;;0.80;99.90;;;;;;5082648;28;20040;-69
2023/02/05 04:38:31;;;;;;;18.95;8.98;;;0.60;99.90;;;;;;5090671;28;20042;-68
2023/02/05 04:40:57;;;;;;;19.05;9.00;;;0.60;99.90;;;;;;5094499;28;20028;-67
2023/02/05 04:43:23;;;;;;;19.15;8.93;;;0.50;99.90;;;;;;5097285;28;20089;-67
2023/02/05 04:45:48;;;;;;;21.85;9.07;;;0.40;99.90;;;;;;5090083;28;20028;-68
2023/02/05 04:48:14;;;;;;;26.60;8.57;;;0.40;99.90;;;;;;5089651;28;20484;-69
2023/02/05 04:50:40;;;;;;;19.83;7.57;;;0.40;99.90;;;;;;5097709;28;20023;-68
2023/02/05 04:53:05;;;;;;;23.58;7.95;;;0.40;99.90;;;;;;5072381;28;20529;-69
2023/02/05 04:55:31;;;;;;;23.88;9.23;;;0.40;99.90;;;;;;5091120;28;20036;-69
2023/02/05 04:57:57;;;;;;;23.63;7.75;;;0.40;99.90;;;;;;5090881;28;20028;-69
2023/02/05 05:00:24;;;;;;;18.17;7.90;;;0.40;99.90;;;;;;5088808;28;20023;-68
2023/02/05 05:02:49;;;;;;;21.88;9.18;;;0.30;99.90;;;;;;5084193;28;20040;-69
2023/02/05 05:05:15;;;;;;;18.15;9.88;;;0.40;99.90;;;;;;5085255;28;20028;-68
2023/02/05 05:07:41;;;;;;;20.10;10.35;;;0.40;99.90;;;;;;5091045;28;20105;-69
2023/02/05 05:10:07;;;;;;;21.10;10.35;;;0.40;99.90;;;;;;5084054;28;20488;-69
2023/02/05 05:12:34;;;;;;;23.27;10.57;;;0.40;99.90;;;;;;5090394;28;20032;-68
2023/02/05 05:15:00;;;;;;;18.58;9.65;;;0.30;99.90;;;;;;5093820;28;20101;-67
2023/02/05 05:17:26;;;;;;;23.35;9.05;;;0.40;99.90;;;;;;5092576;28;20052;-67
2023/02/05 05:19:51;;;;;;;27.60;9.05;;;0.40;99.90;;;;;;5095040;28;20103;-68
2023/02/05 05:22:18;;;;;;;25.67;8.15;;;0.50;99.90;;;;;;5096868;28;20032;-67
2023/02/05 05:24:43;;;;;;;22.17;8.18;;;0.50;99.90;;;;;;5093984;28;20028;-68
2023/02/05 05:27:09;;;;;;;23.15;8.45;;;0.60;99.90;;;;;;5092757;28;20051;-68
2023/02/05 05:29:35;;;;;;;22.90;8.95;;;0.60;99.90;;;;;;5093366;28;20103;-68
2023/02/05 05:32:03;;;;;;;22.15;8.35;;;0.60;99.90;;;;;;5092154;28;20087;-68
2023/02/05 05:34:29;;;;;;;20.45;7.78;;;0.70;99.90;;;;;;5092104;28;20038;-68
2023/02/05 05:36:55;;;;;;;20.95;8.10;;;0.80;99.90;;;;;;5098303;28;20027;-68
2023/02/05 05:44:50;;;;;;;17.85;7.28;;;1.00;99.90;;;;;;5094242;28;20435;-68
2023/02/05 05:47:17;;;;;;;18.48;7.40;;;1.00;99.90;;;;;;5091014;28;20398;-68
2023/02/05 05:49:42;;;;;;;18.45;7.22;;;1.00;99.90;;;;;;5088422;28;20039;-68
2023/02/05 05:52:08;;;;;;;19.75;6.65;;;1.10;99.90;;;;;;5090478;28;20028;-68
2023/02/05 05:54:34;;;;;;;20.85;7.28;;;1.10;99.90;;;;;;5092949;28;20107;-68
2023/02/05 05:56:59;;;;;;;13.60;6.68;;;1.20;99.90;;;;;;5093240;28;20071;-68
2023/02/05 05:59:25;;;;;;;19.75;7.72;;;1.20;99.90;;;;;;5090395;28;20027;-68
2023/02/05 06:01:51;;;;;;;19.67;6.10;;;1.20;99.90;;;;;;5096616;28;20457;-67
2023/02/05 06:04:17;;;;;;;17.70;6.43;;;1.20;99.90;;;;;;5087853;28;20480;-68
2023/02/05 06:06:42;;;;;;;19.95;7.25;;;1.20;99.90;;;;;;5088783;28;20035;-68
2023/02/05 06:09:08;;;;;;;19.25;7.95;;;1.20;99.90;;;;;;5096121;28;20079;-68
2023/02/05 06:11:34;;;;;;;25.70;8.38;;;1.30;99.90;;;;;;5092712;28;20545;-68
2023/02/05 06:13:59;;;;;;;18.83;8.32;;;1.30;99.90;;;;;;5074814;28;20115;-68
2023/02/05 06:16:25;;;;;;;21.88;9.70;;;1.40;99.90;;;;;;5101081;28;20035;-68
2023/02/05 06:18:50;;;;;;;20.00;7.47;;;1.40;99.90;;;;;;5094795;28;20027;-68
2023/02/05 06:21:16;;;;;;;23.35;8.13;;;1.40;99.90;;;;;;5093708;28;20115;-68
2023/02/05 06:23:41;;;;;;;15.02;6.90;;;1.40;99.90;;;;;;5098966;28;20036;-68
2023/02/05 06:26:07;;;;;;;19.10;7.30;;;1.30;99.90;;;;;;5081820;28;20097;-67
2023/02/05 06:28:33;;;;;;;24.88;9.85;;;1.30;99.90;;;;;;5064226;28;20032;-68
2023/02/05 06:30:58;;;;;;;25.65;10.35;;;1.30;99.90;;;;;;5070877;28;20043;-67
2023/02/05 06:33:24;;;;;;;24.48;9.40;;;1.40;99.90;;;;;;5060943;28;20024;-67
2023/02/05 06:35:50;;;;;;;19.00;8.63;;;1.40;99.90;;;;;;5069302;28;20182;-67
2023/02/05 06:38:15;;;;;;;21.83;9.93;;;1.40;99.90;;;;;;5071022;28;20436;-67
2023/02/05 06:40:41;;;;;;;17.92;8.77;;;1.40;99.90;;;;;;5073370;28;20024;-67
2023/02/05 06:43:06;;;;;;;17.98;8.50;;;1.40;99.90;;;;;;5071169;28;20444;-67
2023/02/05 06:45:32;;;;;;;19.92;9.90;;;1.40;99.90;;;;;;5062865;28;20124;-66
2023/02/05 06:47:58;;;;;;;20.10;9.82;;;1.30;99.90;;;;;;5071896;28;20078;-67
2023/02/05 06:50:24;;;;;;;19.58;9.35;;;1.40;99.90;;;;;;5073982;28;20595;-67
2023/02/05 06:52:50;;;;;;;19.42;8.77;;;1.40;99.90;;;;;;5071885;28;20054;-66
2023/02/05 06:55:16;;;;;;;25.75;9.30;;;1.40;99.90;;;;;;5055946;28;20110;-66
2023/02/05 06:57:42;;;;;;;25.25;9.85;;;1.50;99.90;;;;;;5069508;28;20037;-66
2023/02/05 07:00:09;;;;;;;22.33;8.27;;;1.60;99.90;;;;;;5074530;28;20500;-66
2023/02/05 07:02:34;;;;;;;19.95;9.20;;;1.70;99.90;;;;;;5064833;28;20028;-68
2023/02/05 07:05:00;;;;;;;18.55;8.68;;;1.80;99.90;;;;;;5071131;28;20050;-68
2023/02/05 07:07:27;;;;;;;26.70;9.93;;;1.80;99.90;;;;;;5070335;28;20087;-67
2023/02/05 07:09:52;;;;;;;23.92;9.93;;;1.80;99.90;;;;;;5067977;28;20027;-66
2023/02/05 07:12:18;;;;;;;19.98;8.57;;;1.80;99.90;;;;;;5071264;28;20338;-67
2023/02/05 07:14:44;;;;;;;23.20;10.07;;;1.80;99.90;;;;;;5069716;28;20089;-67
2023/02/05 07:17:10;;;;;;;20.48;9.02;;;1.80;99.90;;;;;;5065102;28;20470;-67
2023/02/05 07:19:36;;;;;;;19.23;8.57;;;1.80;99.90;;;;;;5072069;28;20457;-67
2023/02/05 07:22:02;;;;;;;16.60;8.60;;;1.70;99.90;;;;;;5069185;28;20481;-66
2023/02/05 07:24:28;;;;;;;16.38;8.57;;;1.80;99.90;;;;;;5069837;28;20035;-65
2023/02/05 07:26:53;;;;;;;17.77;8.63;;;1.70;99.90;;;;;;5066909;28;20053;-65
2023/02/05 07:29:19;;;;;;;16.52;8.05;;;1.80;99.90;;;;;;5048954;28;20039;-66
2023/02/05 07:31:45;;;;;;;18.73;8.02;;;1.80;99.90;;;;;;5066013;28;20032;-66
2023/02/05 07:34:10;;;;;;;19.58;8.07;;;1.80;99.90;;;;;;5052988;28;20115;-65
2023/02/05 07:36:36;;;;;;;19.80;8.10;;;1.80;99.90;;;;;;5071368;28;20054;-67
2023/02/05 07:39:02;;;;;;;24.83;10.05;;;1.80;99.90;;;;;;5069878;28;20119;-67
2023/02/05 07:41:27;;;;;;;17.58;8.32;;;1.90;99.90;;;;;;5069876;28;20090;-66
2023/02/05 07:43:53;;;;;;;19.52;8.18;;;1.90;99.90;;;;;;5068975;28;20036;-67
2023/02/05 07:46:20;;;;;;;20.55;7.53;;;2.00;99.90;;;;;;5068083;28;20047;-66
2023/02/05 07:48:46;;;;;;;19.17;8.10;;;2.00;99.90;;;;;;5067509;28;20366;-66
2023/02/05 07:51:22;;;;;;;15.35;7.70;;;2.10;99.90;;;;;;5068866;28;20044;-66
2023/02/05 07:53:49;;;;;;;18.30;8.50;;;2.10;99.90;;;;;;5069085;28;20029;-67
2023/02/05 07:56:15;;;;;;;18.17;9.30;;;2.30;99.90;;;;;;5068875;28;20068;-67
2023/02/05 07:58:41;;;;;;;20.05;8.82;;;2.40;99.90;;;;;;5069148;28;20025;-68
2023/02/05 08:01:07;;;;;;;23.63;10.77;;;2.40;99.90;;;;;;5065725;28;20037;-69
2023/02/05 08:03:33;;;;;;;32.63;11.70;;;2.50;99.90;;;;;;5071320;28;20036;-66
2023/02/05 08:06:07;;;;;;;26.02;11.13;;;2.40;99.90;;;;;;5072491;28;20830;-67
2023/02/05 08:08:32;;;;;;;26.58;10.43;;;2.40;99.90;;;;;;5070030;28;20558;-67
2023/02/05 08:11:03;;;;;;;21.02;8.95;;;2.40;99.90;;;;;;5070585;28;20028;-67
2023/02/05 08:13:29;;;;;;;21.38;9.77;;;2.30;99.90;;;;;;5069287;28;20048;-68
2023/02/05 08:15:55;;;;;;;18.95;9.18;;;2.30;99.90;;;;;;5071348;28;20032;-68
2023/02/05 08:18:21;;;;;;;22.95;9.60;;;2.30;99.90;;;;;;5065990;28;20028;-68
2023/02/05 08:20:50;;;;;;;18.70;9.50;;;2.40;99.90;;;;;;5052025;28;20033;-68
2023/02/05 08:23:15;;;;;;;18.90;8.85;;;2.40;99.90;;;;;;5076525;28;20027;-68
2023/02/05 08:25:41;;;;;;;17.75;8.07;;;2.40;99.90;;;;;;5068945;28;20358;-68
2023/02/05 08:28:07;;;;;;;16.92;8.13;;;2.40;99.90;;;;;;5089712;28;20028;-68
2023/02/05 08:30:33;;;;;;;16.80;7.93;;;2.40;99.90;;;;;;5093661;28;20028;-68
2023/02/05 08:32:58;;;;;;;16.02;8.63;;;2.50;99.90;;;;;;5089824;28;20031;-68
2023/02/05 08:35:24;;;;;;;20.67;8.50;;;2.50;99.90;;;;;;5089454;28;20165;-68
2023/02/05 08:37:49;;;;;;;19.48;8.43;;;2.50;99.90;;;;;;5090698;28;20111;-69
2023/02/05 08:40:15;;;;;;;21.42;9.73;;;2.60;99.90;;;;;;5089270;28;20519;-68
2023/02/05 08:42:41;;;;;;;22.98;9.98;;;2.70;99.90;;;;;;5091054;28;20111;-68
2023/02/05 08:45:07;;;;;;;18.85;9.50;;;2.90;99.90;;;;;;5078997;28;20396;-68
2023/02/05 08:47:34;;;;;;;18.08;9.23;;;2.90;99.90;;;;;;5089920;28;20119;-68
2023/02/05 08:50:00;;;;;;;18.58;9.40;;;2.90;99.90;;;;;;5094080;28;20039;-68
2023/02/05 08:52:26;;;;;;;21.98;8.93;;;3.00;99.90;;;;;;5093138;28;20036;-69
2023/02/05 08:54:51;;;;;;;20.05;8.52;;;3.00;99.90;;;;;;5093422;28;20032;-67
2023/02/05 08:57:17;;;;;;;18.35;9.35;;;3.00;99.90;;;;;;5093444;28;20036;-71
2023/02/05 08:59:43;;;;;;;17.95;8.65;;;3.00;99.90;;;;;;5094219;28;20028;-70
2023/02/05 09:02:13;;;;;;;19.85;10.68;;;3.00;99.90;;;;;;5083598;28;20423;-71
2023/02/05 09:04:39;;;;;;;26.48;11.18;;;3.10;99.90;;;;;;5093805;28;20032;-71
2023/02/05 09:07:05;;;;;;;18.70;9.38;;;3.10;99.90;;;;;;5101126;28;20086;-68
2023/02/05 09:09:33;;;;;;;13.32;7.75;;;3.20;99.90;;;;;;5105821;28;20384;-68
2023/02/05 09:11:59;;;;;;;22.30;8.48;;;3.30;99.90;;;;;;5093738;28;20036;-68
2023/02/05 09:14:25;;;;;;;20.52;9.48;;;3.40;99.90;;;;;;5093070;28;20220;-66
2023/02/05 09:16:50;;;;;;;21.08;10.13;;;3.40;99.90;;;;;;5079021;28;20039;-66
2023/02/05 09:19:16;;;;;;;20.70;9.75;;;3.50;99.90;;;;;;5079106;28;20024;-67
2023/02/05 09:21:41;;;;;;;19.65;10.32;;;3.50;99.90;;;;;;5091485;28;20032;-66
2023/02/05 09:24:07;;;;;;;18.27;8.95;;;3.50;99.90;;;;;;5090731;28;20036;-66
2023/02/05 09:26:33;;;;;;;20.15;10.00;;;3.50;99.90;;;;;;5090929;28;20404;-66
2023/02/05 09:28:58;;;;;;;20.70;10.23;;;3.40;99.90;;;;;;5090980;28;20028;-67
2023/02/05 09:31:24;;;;;;;16.55;9.82;;;3.30;99.90;;;;;;5070585;28;20107;-67
2023/02/05 09:33:49;;;;;;;17.90;10.13;;;3.20;99.90;;;;;;5087552;28;20165;-67
2023/02/05 09:36:20;;;;;;;17.25;11.57;;;3.20;99.90;;;;;;5088982;28;20043;-67
2023/02/05 09:38:46;;;;;;;20.27;11.35;;;3.10;99.90;;;;;;5090521;28;20028;-68
2023/02/05 09:41:12;;;;;;;20.45;10.70;;;3.00;99.90;;;;;;5095528;28;20369;-67
2023/02/05 09:43:57;;;;;;;21.95;10.90;;;2.90;99.90;;;;;;5093884;28;20142;-68
2023/02/05 09:46:39;;;;;;;19.77;10.18;;;2.80;99.90;;;;;;5090786;28;20048;-68
2023/02/05 09:49:20;;;;;;;18.73;11.15;;;2.80;99.90;;;;;;5087985;28;20028;-70
2023/02/05 09:52:01;;;;;;;25.13;11.30;;;2.80;99.90;;;;;;5088918;28;20059;-70
2023/02/05 09:54:37;;;;;;;25.17;12.07;;;2.80;99.90;;;;;;5089289;28;20020;-68
2023/02/05 09:57:09;;;;;;;29.60;13.35;;;2.70;99.90;;;;;;5090411;28;20060;-72
2023/02/05 09:59:35;;;;;;;24.45;12.77;;;2.70;99.90;;;;;;5088399;28;20562;-71
2023/02/05 10:02:15;;;;;;;25.13;10.75;;;2.80;99.90;;;;;;5091050;28;20036;-69
2023/02/05 10:04:41;;;;;;;26.13;11.82;;;2.80;99.90;;;;;;5089097;28;20120;-70
2023/02/05 10:07:27;;;;;;;22.38;11.27;;;2.80;99.90;;;;;;5090244;28;20068;-69
2023/02/05 10:10:04;;;;;;;21.70;10.57;;;2.80;99.90;;;;;;5092512;28;20036;-69
2023/02/05 10:13:01;;;;;;;19.55;11.20;;;2.90;99.90;;;;;;5086436;28;20089;-69
2023/02/05 10:15:59;;;;;;;25.02;10.60;;;3.00;99.90;;;;;;5090462;28;20111;-69
2023/02/05 10:18:44;;;;;;;28.48;14.15;;;3.00;99.90;;;;;;5066602;28;20603;-68
2023/02/05 10:21:19;;;;;;;22.98;13.60;;;3.10;99.90;;;;;;5091630;28;20032;-67
2023/02/05 10:24:05;;;;;;;27.73;13.18;;;3.20;99.90;;;;;;5092714;28;20024;-67
2023/02/05 10:26:47;;;;;;;27.85;13.27;;;3.20;99.90;;;;;;5085982;28;20458;-68
2023/02/05 10:29:28;;;;;;;20.63;13.00;;;3.20;99.90;;;;;;5091151;28;20450;-68
2023/02/05 10:32:07;;;;;;;26.48;13.73;;;3.20;99.90;;;;;;5094439;28;20020;-67
2023/02/05 10:34:39;;;;;;;25.40;13.88;;;3.30;99.90;;;;;;5093662;28;20453;-71
2023/02/05 10:37:13;;;;;;;32.45;20.08;;;3.30;99.90;;;;;;5088087;28;20119;-68
2023/02/05 10:39:39;;;;;;;30.75;15.85;;;3.30;99.90;;;;;;5092373;28;20020;-67
2023/02/05 10:42:14;;;;;;;31.02;15.00;;;3.30;99.90;;;;;;5090532;28;20122;-69
2023/02/05 10:44:43;;;;;;;27.45;13.70;;;3.30;99.90;;;;;;5086778;28;20075;-67
2023/02/05 10:47:14;;;;;;;25.65;13.75;;;3.30;99.90;;;;;;5090911;28;20036;-67
2023/02/05 10:49:52;;;;;;;27.63;15.23;;;3.30;99.90;;;;;;5098267;28;20076;-67
2023/02/05 10:52:17;;;;;;;27.95;13.88;;;3.30;99.90;;;;;;5095099;28;20016;-68
2023/02/05 10:54:45;;;;;;;24.05;13.38;;;3.40;99.90;;;;;;5096158;28;20024;-67
2023/02/05 10:57:13;;;;;;;25.08;14.07;;;3.40;99.90;;;;;;5091481;28;20036;-67
2023/02/05 10:59:55;;;;;;;24.10;13.25;;;3.50;99.90;;;;;;5091198;28;20066;-68
2023/02/05 11:02:24;;;;;;;29.58;14.00;;;3.60;99.90;;;;;;5088271;28;20036;-67
2023/02/05 11:04:58;;;;;;;25.73;13.45;;;3.60;99.90;;;;;;5087722;28;20031;-68
2023/02/05 11:07:40;;;;;;;25.67;10.80;;;3.70;99.90;;;;;;5087775;28;20297;-68
2023/02/05 11:10:32;;;;;;;25.48;11.25;;;3.70;99.90;;;;;;5093704;28;20174;-67
2023/02/05 11:13:17;;;;;;;21.40;8.25;;;3.80;99.90;;;;;;5088086;28;20035;-68
2023/02/05 11:16:12;;;;;;;19.73;8.18;;;3.80;99.90;;;;;;5089487;28;20024;-69
2023/02/05 11:18:41;;;;;;;19.73;7.88;;;3.80;99.90;;;;;;5076341;28;20063;-68
2023/02/05 11:21:08;;;;;;;23.35;8.15;;;3.80;99.90;;;;;;5094372;28;20069;-68
2023/02/05 11:23:38;;;;;;;26.75;8.68;;;3.90;99.90;;;;;;5093215;28;20036;-67
2023/02/05 11:26:18;;;;;;;;;;;3.90;99.90;;;;;;5091425;28;20226;-67
2023/02/05 11:28:44;;;;;;;23.75;8.32;;;4.00;99.90;;;;;;5084084;28;19911;-67
2023/02/05 11:31:30;;;;;;;23.63;8.25;;;4.10;99.90;;;;;;5089819;28;20028;-68
2023/02/05 11:34:09;;;;;;;17.98;7.95;;;4.10;99.90;;;;;;5089694;28;20079;-68
2023/02/05 11:36:39;;;;;;;24.30;8.43;;;;;;;;;;5082510;28;20085;-69
2023/02/05 11:39:08;;;;;;;;;;;;;;;;;;5091019;28;20031;-68
2023/02/05 11:41:47;;;;;;;19.85;7.22;;;;;;;;;;5091565;28;20402;-68
2023/02/05 11:44:20;;;;;;;18.15;7.35;;;;;;;;;;5090336;28;20429;-68
2023/02/05 11:46:47;;;;;;;18.83;8.02;;;;;;;;;;5082221;28;20028;-68
2023/02/05 11:49:24;;;;;;;23.90;7.88;;;;;;;;;;5079267;28;20442;-68
2023/02/05 11:51:55;;;;;;;20.15;7.00;;;;;;;;;;5090667;28;20094;-69
2023/02/05 11:54:25;;;;;;;27.17;7.93;;;;;;;;;;5090023;28;20473;-68
2023/02/05 11:57:05;;;;;;;25.15;8.43;;;;;;;;;;5096563;28;20032;-68
2023/02/05 11:59:35;;;;;;;19.52;8.40;;;;;;;;;;5089436;28;20082;-68
2023/02/05 12:02:21;;;;;;;15.98;8.10;;;;;;;;;;5091303;28;20031;-68
2023/02/05 12:04:51;;;;;;;20.25;8.02;;;;;;;;;;5080805;28;20024;-68
2023/02/05 12:07:21;;;;;;;19.40;7.07;;;;;;;;;;5090091;28;20043;-68
2023/02/05 12:09:58;;;;;;;20.08;7.78;;;;;;;;;;5072288;28;20028;-69
2023/02/05 12:12:32;;;;;;;19.30;8.05;;;;;;;;;;5077481;28;20016;-69
2023/02/05 12:15:22;;;;;;;16.08;6.90;;;;;;;;;;5088792;28;20027;-69
2023/02/05 12:17:56;;;;;;;20.38;8.15;;;;;;;;;;5093739;28;20034;-68
2023/02/05 12:20:46;;;;;;;18.90;9.40;;;;;;;;;;5090439;28;20032;-69
2023/02/05 12:23:25;;;;;;;22.95;12.52;;;;;;;;;;5097109;28;20431;-69
2023/02/05 12:25:59;;;;;;;24.77;12.45;;;;;;;;;;5107166;28;20031;-68
2023/02/05 12:28:37;;;;;;;23.15;11.60;;;;;;;;;;5091880;28;20208;-68
2023/02/05 12:31:19;;;;;;;24.40;12.50;;;;;;;;;;5100056;28;20093;-69
2023/02/05 12:33:48;;;;;;;26.55;15.27;;;;;;;;;;5094651;28;20106;-68
2023/02/05 12:36:23;;;;;;;34.85;15.68;;;;;;;;;;5090075;28;20078;-69
2023/02/05 12:39:11;;;;;;;34.45;15.02;;;;;;;;;;5094511;28;20040;-68
2023/02/05 12:41:53;;;;;;;30.73;14.50;;;;;;;;;;5092585;28;20036;-68
2023/02/05 12:44:43;;;;;;;27.35;13.55;;;;;;;;;;5085798;28;20024;-68
2023/02/05 12:47:15;;;;;;;26.67;13.27;;;;;;;;;;5093987;28;20055;-68
2023/02/05 12:50:06;;;;;;;29.42;14.25;;;;;;;;;;5094155;28;20066;-68
2023/02/05 12:52:52;;;;;;;31.25;15.15;;;;;;;;;;5092203;28;20107;-68
2023/02/05 12:55:40;;;;;;;26.63;14.32;;;;;;;;;;5093722;28;20074;-68
2023/02/05 12:58:11;;;;;;;31.85;16.13;;;;;;;;;;5093492;28;20032;-68
2023/02/05 13:00:43;;;;;;;30.73;15.63;;;;;;;;;;5078951;28;20044;-68
2023/02/05 13:03:27;;;;;;;30.23;14.95;;;;;;;;;;5077512;28;20032;-68
2023/02/05 13:06:05;;;;;;;32.42;15.95;;;;;;;;;;5089131;28;20085;-68
2023/02/05 13:08:43;;;;;;;25.17;14.82;;;;;;;;;;5091963;28;20063;-69
2023/02/05 13:11:15;;;;;;;28.83;14.10;;;;;;;;;;5091642;28;20076;-68
2023/02/05 13:13:55;;;;;;;29.67;13.77;;;;;;;;;;5093570;28;20073;-68
2023/02/05 13:16:26;;;;;;;26.15;13.98;;;;;;;;;;5090965;28;20065;-68